sensor_id;sensor_type;location;lat;lon;timestamp;pressure;altitude;pressure_sealevel;temperature;humidity
13476;BME280;6810;63.824;20.288;2022-10-03T00:03:24;101140.06;;;11.09;90.41
13476;BME280;6810;63.824;20.288;2022-10-03T00:15:34;101145.56;;;11.06;89.41
13476;BME280;6810;63.824;20.288;2022-10-03T00:18:45;101146.50;;;11.05;89.90
13476;BME280;6810;63.824;20.288;2022-10-03T00:27:47;101154.50;;;11.05;90.51
13476;BME280;6810;63.824;20.288;2022-10-03T00:39:46;101156.25;;;11.06;90.22
13476;BME280;6810;63.824;20.288;2022-10-03T00:59:42;101165.09;;;11.07;90.15
13476;BME280;6810;63.824;20.288;2022-10-03T01:08:37;101171.13;;;11.10;90.40
13476;BME280;6810;63.824;20.288;2022-10-03T01:27:07;101172.91;;;11.10;90.12
13476;BME280;6810;63.824;20.288;2022-10-03T01:30:02;101167.75;;;11.07;90.22
13476;BME280;6810;63.824;20.288;2022-10-03T01:33:24;101166.91;;;11.06;90.05
13476;BME280;6810;63.824;20.288;2022-10-03T01:36:23;101179.13;;;11.10;89.94
13476;BME280;6810;63.824;20.288;2022-10-03T01:39:15;101175.59;;;11.10;90.69
13476;BME280;6810;63.824;20.288;2022-10-03T01:42:13;101174.84;;;11.08;90.12
13476;BME280;6810;63.824;20.288;2022-10-03T01:45:24;101180.94;;;11.10;89.62
13476;BME280;6810;63.824;20.288;2022-10-03T01:52:13;101187.13;;;11.10;90.46
13476;BME280;6810;63.824;20.288;2022-10-03T01:55:24;101179.22;;;11.09;89.46
13476;BME280;6810;63.824;20.288;2022-10-03T02:02:00;101182.84;;;11.08;90.08
13476;BME280;6810;63.824;20.288;2022-10-03T02:05:10;101184.63;;;11.07;89.18
13476;BME280;6810;63.824;20.288;2022-10-03T02:11:04;101178.41;;;11.07;90.42
13476;BME280;6810;63.824;20.288;2022-10-03T02:17:12;101190.03;;;11.06;90.39
13476;BME280;6810;63.824;20.288;2022-10-03T02:22:55;101191.09;;;11.03;90.23
13476;BME280;6810;63.824;20.288;2022-10-03T02:26:08;101194.66;;;11.02;90.09
13476;BME280;6810;63.824;20.288;2022-10-03T02:29:18;101198.28;;;11.01;90.27
13476;BME280;6810;63.824;20.288;2022-10-03T02:46:25;101199.31;;;10.99;89.39
13476;BME280;6810;63.824;20.288;2022-10-03T02:48:52;101201.13;;;10.98;88.88
13476;BME280;6810;63.824;20.288;2022-10-03T02:55:22;101195.94;;;10.95;90.17
13476;BME280;6810;63.824;20.288;2022-10-03T03:19:41;101209.13;;;10.98;89.23
13476;BME280;6810;63.824;20.288;2022-10-03T03:22:47;101206.47;;;10.98;89.30
13476;BME280;6810;63.824;20.288;2022-10-03T03:44:52;101208.00;;;11.02;89.91
13476;BME280;6810;63.824;20.288;2022-10-03T03:48:26;101208.00;;;11.02;90.31
13476;BME280;6810;63.824;20.288;2022-10-03T03:51:55;101211.63;;;11.01;89.24
13476;BME280;6810;63.824;20.288;2022-10-03T03:58:01;101218.75;;;11.01;89.02
13476;BME280;6810;63.824;20.288;2022-10-03T04:06:52;101217.91;;;11.00;89.28
13476;BME280;6810;63.824;20.288;2022-10-03T04:29:49;101222.53;;;10.97;88.91
13476;BME280;6810;63.824;20.288;2022-10-03T04:33:24;101229.66;;;10.96;89.04
13476;BME280;6810;63.824;20.288;2022-10-03T04:42:07;101234.25;;;10.94;89.22
13476;BME280;6810;63.824;20.288;2022-10-03T04:45:36;101235.16;;;10.93;89.09
13476;BME280;6810;63.824;20.288;2022-10-03T05:08:05;101239.72;;;10.91;89.21
13476;BME280;6810;63.824;20.288;2022-10-03T05:29:26;101267.31;;;10.90;89.86
13476;BME280;6810;63.824;20.288;2022-10-03T05:38:19;101269.06;;;10.91;90.16
13476;BME280;6810;63.824;20.288;2022-10-03T05:44:16;101270.06;;;10.89;89.86
13476;BME280;6810;63.824;20.288;2022-10-03T06:02:07;101269.84;;;10.93;89.84
13476;BME280;6810;63.824;20.288;2022-10-03T06:05:28;101266.41;;;10.91;89.60
13476;BME280;6810;63.824;20.288;2022-10-03T06:42:10;101301.06;;;11.08;90.40
13476;BME280;6810;63.824;20.288;2022-10-03T07:00:20;101308.00;;;11.12;90.52
13476;BME280;6810;63.824;20.288;2022-10-03T07:31:24;101332.44;;;11.20;90.45
13476;BME280;6810;63.824;20.288;2022-10-03T07:34:52;101324.44;;;11.20;90.62
13476;BME280;6810;63.824;20.288;2022-10-03T07:44:04;101328.63;;;11.26;90.16
13476;BME280;6810;63.824;20.288;2022-10-03T08:06:11;101348.47;;;11.37;90.62
13476;BME280;6810;63.824;20.288;2022-10-03T08:22:13;101352.66;;;11.43;90.32
13476;BME280;6810;63.824;20.288;2022-10-03T08:47:42;101350.69;;;11.63;89.39
13476;BME280;6810;63.824;20.288;2022-10-03T08:51:26;101353.19;;;11.66;90.06
13476;BME280;6810;63.824;20.288;2022-10-03T09:03:53;101361.44;;;11.79;89.24
13476;BME280;6810;63.824;20.288;2022-10-03T09:26:51;101367.88;;;12.07;88.88
13476;BME280;6810;63.824;20.288;2022-10-03T09:38:59;101364.91;;;12.29;88.41
13476;BME280;6810;63.824;20.288;2022-10-03T09:48:38;101372.06;;;12.44;87.62
13476;BME280;6810;63.824;20.288;2022-10-03T09:58:02;101375.97;;;12.54;87.73
13476;BME280;6810;63.824;20.288;2022-10-03T10:34:13;101381.91;;;13.21;84.22
13476;BME280;6810;63.824;20.288;2022-10-03T10:47:10;101381.03;;;13.21;83.41
13476;BME280;6810;63.824;20.288;2022-10-03T11:24:01;101394.88;;;13.72;81.86
13476;BME280;6810;63.824;20.288;2022-10-03T11:27:17;101397.09;;;13.80;81.74
13476;BME280;6810;63.824;20.288;2022-10-03T11:33:26;101397.56;;;13.86;80.98
13476;BME280;6810;63.824;20.288;2022-10-03T11:48:45;101404.38;;;14.06;80.17
13476;BME280;6810;63.824;20.288;2022-10-03T11:51:41;101413.31;;;14.07;80.16
13476;BME280;6810;63.824;20.288;2022-10-03T11:54:41;101409.00;;;14.04;79.84
13476;BME280;6810;63.824;20.288;2022-10-03T11:57:33;101404.47;;;14.05;79.97
13476;BME280;6810;63.824;20.288;2022-10-03T12:00:21;101408.22;;;14.02;79.38
13476;BME280;6810;63.824;20.288;2022-10-03T12:03:16;101411.88;;;14.01;79.55
13476;BME280;6810;63.824;20.288;2022-10-03T12:06:22;101418.06;;;14.02;79.40
13476;BME280;6810;63.824;20.288;2022-10-03T12:15:31;101414.84;;;13.97;78.89
13476;BME280;6810;63.824;20.288;2022-10-03T12:21:37;101411.97;;;14.00;78.31
13476;BME280;6810;63.824;20.288;2022-10-03T12:24:33;101395.09;;;13.98;78.52
13476;BME280;6810;63.824;20.288;2022-10-03T12:27:45;101415.88;;;14.08;78.42
13476;BME280;6810;63.824;20.288;2022-10-03T12:30:45;101410.34;;;14.11;77.79
13476;BME280;6810;63.824;20.288;2022-10-03T12:36:47;101412.72;;;14.16;77.89
13476;BME280;6810;63.824;20.288;2022-10-03T12:39:54;101409.94;;;14.17;77.52
13476;BME280;6810;63.824;20.288;2022-10-03T12:42:58;101419.66;;;14.20;77.55
13476;BME280;6810;63.824;20.288;2022-10-03T12:45:53;101405.28;;;14.21;77.05
13476;BME280;6810;63.824;20.288;2022-10-03T12:48:57;101393.88;;;14.17;77.08
13476;BME280;6810;63.824;20.288;2022-10-03T12:52:01;101406.25;;;14.34;76.93
13476;BME280;6810;63.824;20.288;2022-10-03T13:04:01;101402.38;;;14.80;76.48
13476;BME280;6810;63.824;20.288;2022-10-03T13:13:05;101396.78;;;14.83;75.46
13476;BME280;6810;63.824;20.288;2022-10-03T13:25:03;101392.56;;;14.93;74.34
13476;BME280;6810;63.824;20.288;2022-10-03T13:30:22;101397.25;;;14.89;73.22
13476;BME280;6810;63.824;20.288;2022-10-03T13:32:58;101397.38;;;14.88;73.55
13476;BME280;6810;63.824;20.288;2022-10-03T13:41:35;101401.13;;;14.85;73.68
13476;BME280;6810;63.824;20.288;2022-10-03T13:44:37;101396.50;;;14.87;73.59
13476;BME280;6810;63.824;20.288;2022-10-03T13:48:10;101399.94;;;14.89;73.95
13476;BME280;6810;63.824;20.288;2022-10-03T13:51:03;101402.53;;;14.91;73.53
13476;BME280;6810;63.824;20.288;2022-10-03T13:54:24;101409.81;;;14.89;72.88
13476;BME280;6810;63.824;20.288;2022-10-03T13:57:22;101398.53;;;14.84;73.02
13476;BME280;6810;63.824;20.288;2022-10-03T14:00:14;101397.88;;;14.80;73.08
13476;BME280;6810;63.824;20.288;2022-10-03T14:06:09;101396.16;;;14.79;73.70
13476;BME280;6810;63.824;20.288;2022-10-03T14:15:54;101399.78;;;14.78;73.82
13476;BME280;6810;63.824;20.288;2022-10-03T14:19:13;101403.53;;;14.76;73.83
13476;BME280;6810;63.824;20.288;2022-10-03T14:25:25;101394.34;;;14.66;73.39
13476;BME280;6810;63.824;20.288;2022-10-03T14:28:23;101400.00;;;14.61;73.39
13476;BME280;6810;63.824;20.288;2022-10-03T14:31:23;101404.81;;;14.56;72.97
13476;BME280;6810;63.824;20.288;2022-10-03T14:41:08;101409.13;;;14.45;73.47
13476;BME280;6810;63.824;20.288;2022-10-03T14:44:06;101411.22;;;14.40;73.69
13476;BME280;6810;63.824;20.288;2022-10-03T14:47:09;101391.72;;;14.24;73.82
13476;BME280;6810;63.824;20.288;2022-10-03T14:49:58;101414.38;;;14.32;73.88
13476;BME280;6810;63.824;20.288;2022-10-03T14:52:56;101418.31;;;14.27;73.86
13476;BME280;6810;63.824;20.288;2022-10-03T14:58:47;101418.69;;;14.21;74.11
13476;BME280;6810;63.824;20.288;2022-10-03T15:01:47;101414.47;;;14.17;73.96
13476;BME280;6810;63.824;20.288;2022-10-03T15:04:36;101413.78;;;14.13;74.46
13476;BME280;6810;63.824;20.288;2022-10-03T15:07:37;101411.41;;;14.09;74.33
13476;BME280;6810;63.824;20.288;2022-10-03T15:10:26;101420.56;;;14.05;75.16
13476;BME280;6810;63.824;20.288;2022-10-03T15:13:14;101424.31;;;14.02;74.69
13476;BME280;6810;63.824;20.288;2022-10-03T15:16:02;101424.59;;;13.98;74.67
13476;BME280;6810;63.824;20.288;2022-10-03T15:18:53;101417.72;;;13.93;74.72
13476;BME280;6810;63.824;20.288;2022-10-03T15:21:43;101417.03;;;13.90;75.25
13476;BME280;6810;63.824;20.288;2022-10-03T15:24:32;101415.00;;;13.79;75.20
13476;BME280;6810;63.824;20.288;2022-10-03T15:27:22;101415.94;;;13.78;75.48
13476;BME280;6810;63.824;20.288;2022-10-03T15:30:38;101420.03;;;13.70;75.71
13476;BME280;6810;63.824;20.288;2022-10-03T15:33:31;101413.41;;;13.61;75.46
13476;BME280;6810;63.824;20.288;2022-10-03T15:36:25;101426.03;;;13.59;75.77
13476;BME280;6810;63.824;20.288;2022-10-03T15:39:26;101428.22;;;13.53;75.64
13476;BME280;6810;63.824;20.288;2022-10-03T15:42:21;101426.78;;;13.47;75.71
13476;BME280;6810;63.824;20.288;2022-10-03T15:45:17;101419.94;;;13.42;75.66
13476;BME280;6810;63.824;20.288;2022-10-03T15:48:15;101408.22;;;13.29;76.04
13476;BME280;6810;63.824;20.288;2022-10-03T15:50:53;101426.78;;;13.32;76.20
13476;BME280;6810;63.824;20.288;2022-10-03T15:53:46;101425.25;;;13.28;76.65
13476;BME280;6810;63.824;20.288;2022-10-03T15:56:41;101424.56;;;13.24;76.39
13476;BME280;6810;63.824;20.288;2022-10-03T15:59:31;101419.47;;;13.20;77.07
13476;BME280;6810;63.824;20.288;2022-10-03T16:02:24;101421.47;;;13.16;77.09
13476;BME280;6810;63.824;20.288;2022-10-03T16:05:16;101415.59;;;13.10;77.33
13476;BME280;6810;63.824;20.288;2022-10-03T16:08:16;101426.56;;;13.05;77.51
13476;BME280;6810;63.824;20.288;2022-10-03T16:11:21;101427.84;;;12.98;77.40
13476;BME280;6810;63.824;20.288;2022-10-03T16:17:46;101432.75;;;12.90;77.97
13476;BME280;6810;63.824;20.288;2022-10-03T16:20:37;101437.44;;;12.87;77.46
13476;BME280;6810;63.824;20.288;2022-10-03T16:23:39;101435.06;;;12.81;78.46
13476;BME280;6810;63.824;20.288;2022-10-03T16:26:38;101424.72;;;12.75;78.27
13476;BME280;6810;63.824;20.288;2022-10-03T16:29:34;101432.56;;;12.78;78.72
13476;BME280;6810;63.824;20.288;2022-10-03T16:32:26;101428.53;;;12.71;78.61
13476;BME280;6810;63.824;20.288;2022-10-03T16:35:29;101429.31;;;12.73;78.24
13476;BME280;6810;63.824;20.288;2022-10-03T16:38:23;101425.94;;;12.69;78.76
13476;BME280;6810;63.824;20.288;2022-10-03T16:41:16;101428.78;;;12.66;78.81
13476;BME280;6810;63.824;20.288;2022-10-03T16:44:21;101425.31;;;12.64;78.66
13476;BME280;6810;63.824;20.288;2022-10-03T16:47:09;101431.63;;;12.63;78.43
13476;BME280;6810;63.824;20.288;2022-10-03T16:49:57;101427.31;;;12.61;78.97
13476;BME280;6810;63.824;20.288;2022-10-03T16:52:47;101430.09;;;12.59;79.02
13476;BME280;6810;63.824;20.288;2022-10-03T16:55:43;101432.94;;;12.56;78.80
13476;BME280;6810;63.824;20.288;2022-10-03T16:58:40;101439.38;;;12.52;79.38
13476;BME280;6810;63.824;20.288;2022-10-03T17:02:20;101436.88;;;12.49;79.79
13476;BME280;6810;63.824;20.288;2022-10-03T17:05:07;101436.16;;;12.46;79.63
13476;BME280;6810;63.824;20.288;2022-10-03T17:07:58;101431.84;;;12.43;79.28
13476;BME280;6810;63.824;20.288;2022-10-03T17:11:11;101432.91;;;12.41;79.30
13476;BME280;6810;63.824;20.288;2022-10-03T17:14:04;101405.41;;;12.21;79.39
13476;BME280;6810;63.824;20.288;2022-10-03T17:16:57;101431.56;;;12.32;79.38
13476;BME280;6810;63.824;20.288;2022-10-03T17:19:55;101430.63;;;12.33;80.59
13476;BME280;6810;63.824;20.288;2022-10-03T17:22:59;101430.81;;;12.30;79.65
13476;BME280;6810;63.824;20.288;2022-10-03T17:31:58;101429.31;;;12.24;79.64
13476;BME280;6810;63.824;20.288;2022-10-03T17:34:56;101425.88;;;12.23;80.67
13476;BME280;6810;63.824;20.288;2022-10-03T17:38:16;101426.88;;;12.20;80.49
13476;BME280;6810;63.824;20.288;2022-10-03T17:41:38;101439.44;;;12.18;79.80
13476;BME280;6810;63.824;20.288;2022-10-03T17:50:50;101431.84;;;12.10;79.92
13476;BME280;6810;63.824;20.288;2022-10-03T17:53:44;101430.28;;;12.06;81.37
13476;BME280;6810;63.824;20.288;2022-10-03T17:56:33;101432.97;;;12.06;81.17
13476;BME280;6810;63.824;20.288;2022-10-03T17:59:26;101432.16;;;12.04;80.24
13476;BME280;6810;63.824;20.288;2022-10-03T18:02:19;101433.22;;;12.02;80.68
13476;BME280;6810;63.824;20.288;2022-10-03T18:05:01;101433.28;;;12.00;80.95
13476;BME280;6810;63.824;20.288;2022-10-03T18:07:52;101422.84;;;11.96;81.73
13476;BME280;6810;63.824;20.288;2022-10-03T18:10:46;101436.22;;;11.96;80.98
13476;BME280;6810;63.824;20.288;2022-10-03T18:13:43;101432.75;;;11.94;80.98
13476;BME280;6810;63.824;20.288;2022-10-03T18:16:36;101430.22;;;11.91;81.27
13476;BME280;6810;63.824;20.288;2022-10-03T18:28:33;101440.38;;;11.84;81.39
13476;BME280;6810;63.824;20.288;2022-10-03T18:31:22;101425.38;;;11.82;81.38
13476;BME280;6810;63.824;20.288;2022-10-03T18:34:43;101435.41;;;11.77;81.53
13476;BME280;6810;63.824;20.288;2022-10-03T18:40:33;101437.50;;;11.72;81.18
13476;BME280;6810;63.824;20.288;2022-10-03T18:43:31;101431.34;;;11.70;81.80
13476;BME280;6810;63.824;20.288;2022-10-03T18:46:24;101421.94;;;11.63;81.21
13476;BME280;6810;63.824;20.288;2022-10-03T18:49:39;101437.13;;;11.61;81.45
13476;BME280;6810;63.824;20.288;2022-10-03T18:52:41;101435.56;;;11.57;81.11
13476;BME280;6810;63.824;20.288;2022-10-03T18:55:39;101436.56;;;11.54;81.66
13476;BME280;6810;63.824;20.288;2022-10-03T18:59:12;101435.09;;;11.49;82.21
13476;BME280;6810;63.824;20.288;2022-10-03T19:02:01;101432.72;;;11.43;81.79
13476;BME280;6810;63.824;20.288;2022-10-03T19:04:53;101441.66;;;11.42;81.18
13476;BME280;6810;63.824;20.288;2022-10-03T19:07:57;101448.09;;;11.38;82.40
13476;BME280;6810;63.824;20.288;2022-10-03T19:10:50;101447.47;;;11.33;81.60
13476;BME280;6810;63.824;20.288;2022-10-03T19:20:09;101442.81;;;11.19;81.31
13476;BME280;6810;63.824;20.288;2022-10-03T19:25:27;101440.53;;;11.12;82.51
13476;BME280;6810;63.824;20.288;2022-10-03T19:28:18;101438.16;;;11.06;81.67
13476;BME280;6810;63.824;20.288;2022-10-03T19:31:16;101432.97;;;11.03;81.51
13476;BME280;6810;63.824;20.288;2022-10-03T19:34:04;101433.13;;;11.00;82.64
13476;BME280;6810;63.824;20.288;2022-10-03T19:36:53;101432.31;;;10.98;82.57
13476;BME280;6810;63.824;20.288;2022-10-03T19:39:42;101427.13;;;10.95;82.59
13476;BME280;6810;63.824;20.288;2022-10-03T19:42:40;101427.28;;;10.92;82.61
13476;BME280;6810;63.824;20.288;2022-10-03T19:45:28;101428.38;;;10.88;82.84
13476;BME280;6810;63.824;20.288;2022-10-03T19:48:16;101428.53;;;10.85;81.74
13476;BME280;6810;63.824;20.288;2022-10-03T19:51:25;101426.09;;;10.80;81.59
13476;BME280;6810;63.824;20.288;2022-10-03T19:54:30;101416.69;;;10.72;82.19
13476;BME280;6810;63.824;20.288;2022-10-03T19:57:40;101432.69;;;10.72;82.40
13476;BME280;6810;63.824;20.288;2022-10-03T20:00:38;101427.50;;;10.69;81.51
13476;BME280;6810;63.824;20.288;2022-10-03T20:03:37;101433.00;;;10.66;82.70
13476;BME280;6810;63.824;20.288;2022-10-03T20:06:46;101423.34;;;10.63;82.41
13476;BME280;6810;63.824;20.288;2022-10-03T20:09:35;101430.63;;;10.60;82.15
13476;BME280;6810;63.824;20.288;2022-10-03T20:12:27;101429.13;;;10.54;81.72
13476;BME280;6810;63.824;20.288;2022-10-03T20:15:21;101431.78;;;10.54;82.56
13476;BME280;6810;63.824;20.288;2022-10-03T20:18:18;101425.72;;;10.50;82.02
13476;BME280;6810;63.824;20.288;2022-10-03T20:21:10;101426.72;;;10.48;82.70
13476;BME280;6810;63.824;20.288;2022-10-03T20:23:59;101424.16;;;10.46;82.27
13476;BME280;6810;63.824;20.288;2022-10-03T20:32:48;101419.25;;;10.37;83.00
13476;BME280;6810;63.824;20.288;2022-10-03T20:44:48;101412.22;;;10.35;83.45
13476;BME280;6810;63.824;20.288;2022-10-03T20:48:12;101411.38;;;10.34;82.90
13476;BME280;6810;63.824;20.288;2022-10-03T20:50:57;101408.78;;;10.33;82.72
13476;BME280;6810;63.824;20.288;2022-10-03T20:53:44;101406.97;;;10.33;83.48
13476;BME280;6810;63.824;20.288;2022-10-03T20:56:41;101400.81;;;10.33;83.10
13476;BME280;6810;63.824;20.288;2022-10-03T21:00:02;101394.81;;;10.28;82.75
13476;BME280;6810;63.824;20.288;2022-10-03T21:03:06;101396.38;;;10.32;82.90
13476;BME280;6810;63.824;20.288;2022-10-03T21:05:57;101371.41;;;10.16;83.17
13476;BME280;6810;63.824;20.288;2022-10-03T21:08:46;101393.78;;;10.30;83.87
13476;BME280;6810;63.824;20.288;2022-10-03T21:11:37;101397.41;;;10.29;83.15
13476;BME280;6810;63.824;20.288;2022-10-03T21:14:27;101402.66;;;10.31;82.95
13476;BME280;6810;63.824;20.288;2022-10-03T21:17:17;101391.34;;;10.26;83.91
13476;BME280;6810;63.824;20.288;2022-10-03T21:20:09;101392.06;;;10.29;83.75
13476;BME280;6810;63.824;20.288;2022-10-03T21:23:02;101392.06;;;10.29;83.94
13476;BME280;6810;63.824;20.288;2022-10-03T21:25:52;101387.63;;;10.30;83.95
13476;BME280;6810;63.824;20.288;2022-10-03T21:28:40;101391.13;;;10.30;83.42
13476;BME280;6810;63.824;20.288;2022-10-03T21:31:39;101392.06;;;10.29;83.35
13476;BME280;6810;63.824;20.288;2022-10-03T21:34:41;101390.44;;;10.27;84.12
13476;BME280;6810;63.824;20.288;2022-10-03T21:37:58;101390.34;;;10.28;84.48
13476;BME280;6810;63.824;20.288;2022-10-03T21:41:24;101392.06;;;10.29;84.49
13476;BME280;6810;63.824;20.288;2022-10-03T21:47:16;101383.22;;;10.29;83.55
13476;BME280;6810;63.824;20.288;2022-10-03T21:50:12;101382.53;;;10.24;83.80
13476;BME280;6810;63.824;20.288;2022-10-03T21:53:35;101383.22;;;10.29;84.39
13476;BME280;6810;63.824;20.288;2022-10-03T21:56:32;101381.41;;;10.29;84.56
13476;BME280;6810;63.824;20.288;2022-10-03T21:59:27;101390.28;;;10.30;84.21
13476;BME280;6810;63.824;20.288;2022-10-03T22:02:57;101392.06;;;10.29;84.23
13476;BME280;6810;63.824;20.288;2022-10-03T22:05:55;101380.47;;;10.30;84.32
13476;BME280;6810;63.824;20.288;2022-10-03T22:08:46;101384.00;;;10.31;84.80
13476;BME280;6810;63.824;20.288;2022-10-03T22:11:40;101386.69;;;10.31;83.65
13476;BME280;6810;63.824;20.288;2022-10-03T22:17:53;101380.47;;;10.30;84.80
13476;BME280;6810;63.824;20.288;2022-10-03T22:21:11;101376.97;;;10.30;84.89
13476;BME280;6810;63.824;20.288;2022-10-03T22:24:15;101375.22;;;10.29;84.08
13476;BME280;6810;63.824;20.288;2022-10-03T22:27:21;101369.88;;;10.29;84.42
13476;BME280;6810;63.824;20.288;2022-10-03T22:30:12;101365.44;;;10.29;85.10
13476;BME280;6810;63.824;20.288;2022-10-03T22:36:45;101366.31;;;10.30;84.88
13476;BME280;6810;63.824;20.288;2022-10-03T22:39:33;101360.09;;;10.29;84.69
13476;BME280;6810;63.824;20.288;2022-10-03T22:42:21;101358.56;;;10.24;84.33
13476;BME280;6810;63.824;20.288;2022-10-03T22:45:10;101347.81;;;10.27;84.52
13476;BME280;6810;63.824;20.288;2022-10-03T22:48:01;101354.03;;;10.26;85.32
13476;BME280;6810;63.824;20.288;2022-10-03T22:50:32;101345.16;;;10.25;85.19
13476;BME280;6810;63.824;20.288;2022-10-03T22:53:01;101340.78;;;10.24;84.49
13476;BME280;6810;63.824;20.288;2022-10-03T22:55:30;101348.84;;;10.23;85.22
13476;BME280;6810;63.824;20.288;2022-10-03T22:57:58;101341.00;;;10.20;84.83
13476;BME280;6810;63.824;20.288;2022-10-03T23:00:29;101335.75;;;10.18;84.20
13476;BME280;6810;63.824;20.288;2022-10-03T23:03:08;101335.03;;;10.15;84.73
13476;BME280;6810;63.824;20.288;2022-10-03T23:11:37;101333.59;;;10.08;85.13
13476;BME280;6810;63.824;20.288;2022-10-03T23:14:40;101327.50;;;10.04;84.22
13476;BME280;6810;63.824;20.288;2022-10-03T23:22:44;101328.06;;;9.92;84.45
13476;BME280;6810;63.824;20.288;2022-10-03T23:25:20;101335.25;;;9.90;83.89
13476;BME280;6810;63.824;20.288;2022-10-03T23:28:08;101329.22;;;9.87;84.63
13476;BME280;6810;63.824;20.288;2022-10-03T23:30:46;101328.56;;;9.82;83.86
13476;BME280;6810;63.824;20.288;2022-10-03T23:33:15;101336.63;;;9.80;84.92
13476;BME280;6810;63.824;20.288;2022-10-03T23:35:43;101335.94;;;9.75;84.28
13476;BME280;6810;63.824;20.288;2022-10-03T23:41:08;101335.47;;;9.67;83.75
13476;BME280;6810;63.824;20.288;2022-10-03T23:43:47;101353.22;;;9.67;83.99
13476;BME280;6810;63.824;20.288;2022-10-03T23:46:19;101354.22;;;9.64;84.39
13476;BME280;6810;63.824;20.288;2022-10-03T23:48:51;101318.63;;;9.47;84.50
13476;BME280;6810;63.824;20.288;2022-10-03T23:51:32;101345.44;;;9.62;84.06
13476;BME280;6810;63.824;20.288;2022-10-03T23:54:02;101352.53;;;9.62;85.18
